sensor_id;sensor_type;location;lat;lon;timestamp;P1;durP1;ratioP1;P2;durP2;ratioP2
62861;SDS011;48953;53.110;5.592;2022-12-10T00:00:54;53.92;;;20.83;;
62861;SDS011;48953;53.110;5.592;2022-12-10T00:03:20;55.50;;;21.63;;
62861;SDS011;48953;53.110;5.592;2022-12-10T00:05:46;59.42;;;21.00;;
62861;SDS011;48953;53.110;5.592;2022-12-10T00:08:12;54.38;;;20.65;;
62861;SDS011;48953;53.110;5.592;2022-12-10T00:10:39;58.35;;;20.63;;
62861;SDS011;48953;53.110;5.592;2022-12-10T00:13:05;58.20;;;21.80;;
62861;SDS011;48953;53.110;5.592;2022-12-10T00:15:33;54.90;;;21.95;;
62861;SDS011;48953;53.110;5.592;2022-12-10T00:17:59;53.67;;;22.00;;
62861;SDS011;48953;53.110;5.592;2022-12-10T00:20:25;59.28;;;21.52;;
62861;SDS011;48953;53.110;5.592;2022-12-10T00:22:51;57.83;;;21.80;;
62861;SDS011;48953;53.110;5.592;2022-12-10T00:25:17;53.95;;;20.05;;
62861;SDS011;48953;53.110;5.592;2022-12-10T00:27:43;53.97;;;20.85;;
62861;SDS011;48953;53.110;5.592;2022-12-10T00:30:09;52.17;;;20.05;;
62861;SDS011;48953;53.110;5.592;2022-12-10T00:32:36;50.08;;;19.73;;
62861;SDS011;48953;53.110;5.592;2022-12-10T00:35:02;53.83;;;20.35;;
62861;SDS011;48953;53.110;5.592;2022-12-10T00:37:28;53.03;;;21.45;;
62861;SDS011;48953;53.110;5.592;2022-12-10T00:39:54;55.30;;;20.50;;
62861;SDS011;48953;53.110;5.592;2022-12-10T00:42:20;52.53;;;21.40;;
62861;SDS011;48953;53.110;5.592;2022-12-10T00:44:46;52.80;;;21.00;;
62861;SDS011;48953;53.110;5.592;2022-12-10T00:47:12;51.78;;;20.42;;
62861;SDS011;48953;53.110;5.592;2022-12-10T00:49:37;49.28;;;20.65;;
62861;SDS011;48953;53.110;5.592;2022-12-10T00:52:03;50.90;;;21.25;;
62861;SDS011;48953;53.110;5.592;2022-12-10T00:54:29;55.83;;;19.95;;
62861;SDS011;48953;53.110;5.592;2022-12-10T00:56:55;56.08;;;22.00;;
62861;SDS011;48953;53.110;5.592;2022-12-10T00:59:21;59.03;;;21.35;;
62861;SDS011;48953;53.110;5.592;2022-12-10T01:01:47;47.45;;;20.67;;
62861;SDS011;48953;53.110;5.592;2022-12-10T01:04:15;52.97;;;21.15;;
62861;SDS011;48953;53.110;5.592;2022-12-10T01:06:45;56.83;;;21.23;;
62861;SDS011;48953;53.110;5.592;2022-12-10T01:09:12;54.85;;;21.27;;
62861;SDS011;48953;53.110;5.592;2022-12-10T01:11:39;52.03;;;20.10;;
62861;SDS011;48953;53.110;5.592;2022-12-10T01:14:06;52.08;;;20.90;;
62861;SDS011;48953;53.110;5.592;2022-12-10T01:16:32;49.13;;;20.70;;
62861;SDS011;48953;53.110;5.592;2022-12-10T01:18:58;50.70;;;20.02;;
62861;SDS011;48953;53.110;5.592;2022-12-10T01:21:25;56.60;;;21.38;;
62861;SDS011;48953;53.110;5.592;2022-12-10T01:23:52;53.50;;;20.85;;
62861;SDS011;48953;53.110;5.592;2022-12-10T01:26:19;55.58;;;20.85;;
62861;SDS011;48953;53.110;5.592;2022-12-10T01:28:46;56.22;;;20.00;;
62861;SDS011;48953;53.110;5.592;2022-12-10T01:31:15;57.22;;;20.48;;
62861;SDS011;48953;53.110;5.592;2022-12-10T01:33:41;53.42;;;20.48;;
62861;SDS011;48953;53.110;5.592;2022-12-10T01:36:11;55.60;;;21.15;;
62861;SDS011;48953;53.110;5.592;2022-12-10T01:41:03;50.92;;;19.48;;
62861;SDS011;48953;53.110;5.592;2022-12-10T01:46:17;53.97;;;21.80;;
62861;SDS011;48953;53.110;5.592;2022-12-10T01:48:43;54.58;;;21.48;;
62861;SDS011;48953;53.110;5.592;2022-12-10T01:51:09;58.22;;;22.27;;
62861;SDS011;48953;53.110;5.592;2022-12-10T01:53:35;58.72;;;22.58;;
62861;SDS011;48953;53.110;5.592;2022-12-10T01:56:01;55.53;;;22.40;;
62861;SDS011;48953;53.110;5.592;2022-12-10T01:58:27;56.45;;;20.73;;
62861;SDS011;48953;53.110;5.592;2022-12-10T02:03:41;58.72;;;21.85;;
62861;SDS011;48953;53.110;5.592;2022-12-10T02:06:29;52.70;;;21.02;;
62861;SDS011;48953;53.110;5.592;2022-12-10T02:11:44;55.03;;;19.50;;
62861;SDS011;48953;53.110;5.592;2022-12-10T02:14:14;53.45;;;21.95;;
62861;SDS011;48953;53.110;5.592;2022-12-10T02:16:42;52.33;;;20.15;;
62861;SDS011;48953;53.110;5.592;2022-12-10T02:21:42;60.17;;;22.13;;
62861;SDS011;48953;53.110;5.592;2022-12-10T02:24:11;54.67;;;19.48;;
62861;SDS011;48953;53.110;5.592;2022-12-10T02:26:45;55.67;;;21.95;;
62861;SDS011;48953;53.110;5.592;2022-12-10T02:29:23;53.35;;;21.40;;
62861;SDS011;48953;53.110;5.592;2022-12-10T02:32:13;58.03;;;21.30;;
62861;SDS011;48953;53.110;5.592;2022-12-10T02:34:37;50.90;;;20.38;;
62861;SDS011;48953;53.110;5.592;2022-12-10T02:37:07;57.88;;;20.98;;
62861;SDS011;48953;53.110;5.592;2022-12-10T02:39:36;52.20;;;19.90;;
62861;SDS011;48953;53.110;5.592;2022-12-10T02:42:03;63.50;;;23.20;;
62861;SDS011;48953;53.110;5.592;2022-12-10T02:44:30;61.67;;;20.48;;
62861;SDS011;48953;53.110;5.592;2022-12-10T02:46:58;70.53;;;21.63;;
62861;SDS011;48953;53.110;5.592;2022-12-10T02:49:25;88.82;;;20.15;;
62861;SDS011;48953;53.110;5.592;2022-12-10T02:51:52;71.95;;;22.05;;
62861;SDS011;48953;53.110;5.592;2022-12-10T02:59:43;120.82;;;21.40;;
62861;SDS011;48953;53.110;5.592;2022-12-10T03:02:28;88.35;;;18.35;;
62861;SDS011;48953;53.110;5.592;2022-12-10T03:05:02;89.15;;;19.42;;
62861;SDS011;48953;53.110;5.592;2022-12-10T03:07:37;81.53;;;19.10;;
62861;SDS011;48953;53.110;5.592;2022-12-10T03:10:17;84.10;;;19.40;;
62861;SDS011;48953;53.110;5.592;2022-12-10T03:12:47;81.35;;;20.05;;
62861;SDS011;48953;53.110;5.592;2022-12-10T03:15:14;88.78;;;22.17;;
62861;SDS011;48953;53.110;5.592;2022-12-10T03:17:41;88.22;;;22.30;;
62861;SDS011;48953;53.110;5.592;2022-12-10T03:20:09;77.10;;;20.42;;
62861;SDS011;48953;53.110;5.592;2022-12-10T03:22:37;75.45;;;20.55;;
62861;SDS011;48953;53.110;5.592;2022-12-10T03:25:04;82.25;;;22.65;;
62861;SDS011;48953;53.110;5.592;2022-12-10T03:27:31;82.10;;;21.05;;
62861;SDS011;48953;53.110;5.592;2022-12-10T03:29:57;98.07;;;23.02;;
62861;SDS011;48953;53.110;5.592;2022-12-10T03:32:25;85.72;;;22.17;;
62861;SDS011;48953;53.110;5.592;2022-12-10T03:34:53;80.10;;;20.58;;
62861;SDS011;48953;53.110;5.592;2022-12-10T03:37:19;99.05;;;24.77;;
62861;SDS011;48953;53.110;5.592;2022-12-10T03:39:46;84.18;;;21.33;;
62861;SDS011;48953;53.110;5.592;2022-12-10T03:42:12;115.05;;;24.40;;
62861;SDS011;48953;53.110;5.592;2022-12-10T03:44:38;71.88;;;21.02;;
62861;SDS011;48953;53.110;5.592;2022-12-10T03:47:06;75.35;;;20.25;;
62861;SDS011;48953;53.110;5.592;2022-12-10T03:49:35;93.15;;;20.33;;
62861;SDS011;48953;53.110;5.592;2022-12-10T03:52:01;85.35;;;16.52;;
62861;SDS011;48953;53.110;5.592;2022-12-10T03:54:27;83.57;;;18.15;;
62861;SDS011;48953;53.110;5.592;2022-12-10T03:56:53;80.32;;;17.05;;
62861;SDS011;48953;53.110;5.592;2022-12-10T03:59:19;80.25;;;18.25;;
62861;SDS011;48953;53.110;5.592;2022-12-10T04:01:45;70.78;;;16.83;;
62861;SDS011;48953;53.110;5.592;2022-12-10T04:04:11;114.03;;;19.23;;
62861;SDS011;48953;53.110;5.592;2022-12-10T04:06:38;70.75;;;16.30;;
62861;SDS011;48953;53.110;5.592;2022-12-10T04:09:04;72.68;;;15.80;;
62861;SDS011;48953;53.110;5.592;2022-12-10T04:11:30;85.30;;;16.23;;
62861;SDS011;48953;53.110;5.592;2022-12-10T04:13:56;85.57;;;16.73;;
62861;SDS011;48953;53.110;5.592;2022-12-10T04:16:41;115.60;;;17.83;;
62861;SDS011;48953;53.110;5.592;2022-12-10T04:19:08;69.05;;;13.90;;
62861;SDS011;48953;53.110;5.592;2022-12-10T04:21:35;79.32;;;15.65;;
62861;SDS011;48953;53.110;5.592;2022-12-10T04:24:22;85.18;;;15.77;;
62861;SDS011;48953;53.110;5.592;2022-12-10T04:27:16;84.10;;;15.55;;
62861;SDS011;48953;53.110;5.592;2022-12-10T04:29:42;104.53;;;16.00;;
62861;SDS011;48953;53.110;5.592;2022-12-10T04:32:08;114.05;;;17.67;;
62861;SDS011;48953;53.110;5.592;2022-12-10T04:34:34;94.32;;;16.15;;
62861;SDS011;48953;53.110;5.592;2022-12-10T04:37:01;229.93;;;21.88;;
62861;SDS011;48953;53.110;5.592;2022-12-10T04:39:27;120.70;;;17.70;;
62861;SDS011;48953;53.110;5.592;2022-12-10T04:41:54;158.60;;;19.15;;
62861;SDS011;48953;53.110;5.592;2022-12-10T04:44:20;252.18;;;24.17;;
62861;SDS011;48953;53.110;5.592;2022-12-10T04:46:46;172.85;;;23.63;;
62861;SDS011;48953;53.110;5.592;2022-12-10T04:49:12;111.15;;;17.85;;
62861;SDS011;48953;53.110;5.592;2022-12-10T04:51:38;166.95;;;22.17;;
62861;SDS011;48953;53.110;5.592;2022-12-10T04:54:04;72.15;;;14.43;;
62861;SDS011;48953;53.110;5.592;2022-12-10T04:56:30;60.38;;;12.73;;
62861;SDS011;48953;53.110;5.592;2022-12-10T04:58:57;59.33;;;11.30;;
62861;SDS011;48953;53.110;5.592;2022-12-10T05:01:24;50.63;;;13.68;;
62861;SDS011;48953;53.110;5.592;2022-12-10T05:03:51;56.92;;;13.00;;
62861;SDS011;48953;53.110;5.592;2022-12-10T05:06:17;54.72;;;13.00;;
62861;SDS011;48953;53.110;5.592;2022-12-10T05:08:43;49.40;;;12.63;;
62861;SDS011;48953;53.110;5.592;2022-12-10T05:11:11;58.15;;;13.40;;
62861;SDS011;48953;53.110;5.592;2022-12-10T05:13:38;58.88;;;12.88;;
62861;SDS011;48953;53.110;5.592;2022-12-10T05:16:05;57.67;;;13.15;;
62861;SDS011;48953;53.110;5.592;2022-12-10T05:18:32;58.33;;;13.63;;
62861;SDS011;48953;53.110;5.592;2022-12-10T05:20:58;50.70;;;12.65;;
62861;SDS011;48953;53.110;5.592;2022-12-10T05:23:24;57.00;;;13.38;;
62861;SDS011;48953;53.110;5.592;2022-12-10T05:26:00;71.10;;;13.07;;
62861;SDS011;48953;53.110;5.592;2022-12-10T05:28:26;53.75;;;11.82;;
62861;SDS011;48953;53.110;5.592;2022-12-10T05:30:52;73.13;;;13.80;;
62861;SDS011;48953;53.110;5.592;2022-12-10T05:33:18;62.55;;;12.95;;
62861;SDS011;48953;53.110;5.592;2022-12-10T05:36:01;66.57;;;13.50;;
62861;SDS011;48953;53.110;5.592;2022-12-10T05:38:28;62.58;;;12.02;;
62861;SDS011;48953;53.110;5.592;2022-12-10T05:40:54;64.60;;;13.27;;
62861;SDS011;48953;53.110;5.592;2022-12-10T05:43:21;43.22;;;12.18;;
62861;SDS011;48953;53.110;5.592;2022-12-10T05:45:47;48.22;;;12.95;;
62861;SDS011;48953;53.110;5.592;2022-12-10T05:48:14;42.42;;;12.55;;
62861;SDS011;48953;53.110;5.592;2022-12-10T05:50:41;32.72;;;11.65;;
62861;SDS011;48953;53.110;5.592;2022-12-10T05:53:07;44.92;;;12.85;;
62861;SDS011;48953;53.110;5.592;2022-12-10T05:55:33;45.75;;;12.20;;
62861;SDS011;48953;53.110;5.592;2022-12-10T05:57:59;51.47;;;11.85;;
62861;SDS011;48953;53.110;5.592;2022-12-10T06:00:26;36.25;;;11.13;;
62861;SDS011;48953;53.110;5.592;2022-12-10T06:02:52;47.83;;;13.38;;
62861;SDS011;48953;53.110;5.592;2022-12-10T06:05:19;38.25;;;12.10;;
62861;SDS011;48953;53.110;5.592;2022-12-10T06:07:45;74.88;;;13.82;;
62861;SDS011;48953;53.110;5.592;2022-12-10T06:10:11;47.65;;;12.93;;
62861;SDS011;48953;53.110;5.592;2022-12-10T06:12:37;92.05;;;13.77;;
62861;SDS011;48953;53.110;5.592;2022-12-10T06:15:03;201.88;;;21.15;;
62861;SDS011;48953;53.110;5.592;2022-12-10T06:17:29;136.48;;;17.23;;
62861;SDS011;48953;53.110;5.592;2022-12-10T06:19:55;163.63;;;19.30;;
62861;SDS011;48953;53.110;5.592;2022-12-10T06:22:22;42.15;;;12.50;;
62861;SDS011;48953;53.110;5.592;2022-12-10T06:24:48;76.82;;;13.65;;
62861;SDS011;48953;53.110;5.592;2022-12-10T06:27:14;45.67;;;12.07;;
62861;SDS011;48953;53.110;5.592;2022-12-10T06:29:40;37.25;;;11.85;;
62861;SDS011;48953;53.110;5.592;2022-12-10T06:32:06;53.35;;;12.00;;
62861;SDS011;48953;53.110;5.592;2022-12-10T06:34:32;36.15;;;12.40;;
62861;SDS011;48953;53.110;5.592;2022-12-10T06:36:58;43.83;;;13.65;;
62861;SDS011;48953;53.110;5.592;2022-12-10T06:39:24;168.50;;;22.50;;
62861;SDS011;48953;53.110;5.592;2022-12-10T06:41:50;35.63;;;10.40;;
62861;SDS011;48953;53.110;5.592;2022-12-10T06:44:16;48.33;;;11.57;;
62861;SDS011;48953;53.110;5.592;2022-12-10T06:46:42;39.08;;;11.07;;
62861;SDS011;48953;53.110;5.592;2022-12-10T06:49:08;35.30;;;12.15;;
62861;SDS011;48953;53.110;5.592;2022-12-10T06:51:34;91.30;;;13.77;;
62861;SDS011;48953;53.110;5.592;2022-12-10T06:54:00;43.47;;;10.50;;
62861;SDS011;48953;53.110;5.592;2022-12-10T06:56:26;42.13;;;11.95;;
62861;SDS011;48953;53.110;5.592;2022-12-10T06:58:52;38.72;;;12.13;;
62861;SDS011;48953;53.110;5.592;2022-12-10T07:01:19;38.80;;;11.55;;
62861;SDS011;48953;53.110;5.592;2022-12-10T07:03:49;48.75;;;11.88;;
62861;SDS011;48953;53.110;5.592;2022-12-10T07:06:15;48.05;;;12.27;;
62861;SDS011;48953;53.110;5.592;2022-12-10T07:08:41;41.10;;;11.88;;
62861;SDS011;48953;53.110;5.592;2022-12-10T07:11:08;125.63;;;17.60;;
62861;SDS011;48953;53.110;5.592;2022-12-10T07:13:35;34.92;;;12.63;;
62861;SDS011;48953;53.110;5.592;2022-12-10T07:16:01;54.90;;;11.98;;
62861;SDS011;48953;53.110;5.592;2022-12-10T07:18:27;44.40;;;11.25;;
62861;SDS011;48953;53.110;5.592;2022-12-10T07:20:53;35.35;;;11.93;;
62861;SDS011;48953;53.110;5.592;2022-12-10T07:23:20;63.00;;;11.65;;
62861;SDS011;48953;53.110;5.592;2022-12-10T07:25:46;87.57;;;14.88;;
62861;SDS011;48953;53.110;5.592;2022-12-10T07:28:12;144.23;;;18.73;;
62861;SDS011;48953;53.110;5.592;2022-12-10T07:30:38;45.58;;;12.13;;
62861;SDS011;48953;53.110;5.592;2022-12-10T07:33:04;52.03;;;12.73;;
62861;SDS011;48953;53.110;5.592;2022-12-10T07:35:30;51.83;;;12.35;;
62861;SDS011;48953;53.110;5.592;2022-12-10T07:37:56;58.33;;;12.10;;
62861;SDS011;48953;53.110;5.592;2022-12-10T07:40:22;48.67;;;12.25;;
62861;SDS011;48953;53.110;5.592;2022-12-10T07:42:48;75.70;;;13.75;;
62861;SDS011;48953;53.110;5.592;2022-12-10T07:45:15;58.33;;;12.90;;
62861;SDS011;48953;53.110;5.592;2022-12-10T07:47:41;57.05;;;12.30;;
62861;SDS011;48953;53.110;5.592;2022-12-10T07:50:07;74.18;;;13.45;;
62861;SDS011;48953;53.110;5.592;2022-12-10T07:52:33;194.52;;;22.85;;
62861;SDS011;48953;53.110;5.592;2022-12-10T07:54:59;54.47;;;12.52;;
62861;SDS011;48953;53.110;5.592;2022-12-10T07:57:25;52.33;;;12.75;;
62861;SDS011;48953;53.110;5.592;2022-12-10T07:59:51;50.28;;;12.57;;
62861;SDS011;48953;53.110;5.592;2022-12-10T08:02:17;71.22;;;14.18;;
62861;SDS011;48953;53.110;5.592;2022-12-10T08:04:43;46.85;;;12.13;;
62861;SDS011;48953;53.110;5.592;2022-12-10T08:07:09;54.85;;;12.60;;
62861;SDS011;48953;53.110;5.592;2022-12-10T08:09:36;50.60;;;12.45;;
62861;SDS011;48953;53.110;5.592;2022-12-10T08:12:02;102.13;;;15.35;;
62861;SDS011;48953;53.110;5.592;2022-12-10T08:14:28;83.60;;;16.83;;
62861;SDS011;48953;53.110;5.592;2022-12-10T08:16:54;60.17;;;13.70;;
62861;SDS011;48953;53.110;5.592;2022-12-10T08:19:20;45.53;;;13.90;;
62861;SDS011;48953;53.110;5.592;2022-12-10T08:21:46;45.20;;;13.73;;
62861;SDS011;48953;53.110;5.592;2022-12-10T08:24:12;62.33;;;15.15;;
62861;SDS011;48953;53.110;5.592;2022-12-10T08:26:38;52.50;;;15.32;;
62861;SDS011;48953;53.110;5.592;2022-12-10T08:29:04;49.63;;;13.73;;
62861;SDS011;48953;53.110;5.592;2022-12-10T08:31:30;68.70;;;16.52;;
62861;SDS011;48953;53.110;5.592;2022-12-10T08:33:56;67.80;;;15.98;;
62861;SDS011;48953;53.110;5.592;2022-12-10T08:36:22;51.22;;;16.05;;
62861;SDS011;48953;53.110;5.592;2022-12-10T08:38:48;71.15;;;17.98;;
62861;SDS011;48953;53.110;5.592;2022-12-10T08:41:15;58.33;;;16.25;;
62861;SDS011;48953;53.110;5.592;2022-12-10T08:43:42;59.38;;;16.35;;
62861;SDS011;48953;53.110;5.592;2022-12-10T08:46:09;54.05;;;15.20;;
62861;SDS011;48953;53.110;5.592;2022-12-10T08:48:35;71.45;;;15.65;;
62861;SDS011;48953;53.110;5.592;2022-12-10T08:51:02;71.07;;;16.52;;
62861;SDS011;48953;53.110;5.592;2022-12-10T08:53:28;100.90;;;17.00;;
62861;SDS011;48953;53.110;5.592;2022-12-10T08:55:54;58.55;;;15.88;;
62861;SDS011;48953;53.110;5.592;2022-12-10T08:58:20;60.55;;;15.50;;
62861;SDS011;48953;53.110;5.592;2022-12-10T09:00:46;55.90;;;16.25;;
62861;SDS011;48953;53.110;5.592;2022-12-10T09:03:12;51.97;;;14.82;;
62861;SDS011;48953;53.110;5.592;2022-12-10T09:05:38;54.88;;;16.63;;
62861;SDS011;48953;53.110;5.592;2022-12-10T09:08:04;68.22;;;15.57;;
62861;SDS011;48953;53.110;5.592;2022-12-10T09:10:30;61.22;;;16.17;;
62861;SDS011;48953;53.110;5.592;2022-12-10T09:12:56;60.90;;;16.33;;
62861;SDS011;48953;53.110;5.592;2022-12-10T09:15:22;92.10;;;18.60;;
62861;SDS011;48953;53.110;5.592;2022-12-10T09:17:48;61.78;;;16.73;;
62861;SDS011;48953;53.110;5.592;2022-12-10T09:20:14;58.88;;;16.20;;
62861;SDS011;48953;53.110;5.592;2022-12-10T09:22:41;65.47;;;18.35;;
62861;SDS011;48953;53.110;5.592;2022-12-10T09:25:07;58.50;;;15.40;;
62861;SDS011;48953;53.110;5.592;2022-12-10T09:27:40;53.00;;;15.93;;
62861;SDS011;48953;53.110;5.592;2022-12-10T09:30:06;54.25;;;16.00;;
62861;SDS011;48953;53.110;5.592;2022-12-10T09:32:32;53.53;;;15.07;;
62861;SDS011;48953;53.110;5.592;2022-12-10T09:34:58;49.53;;;15.20;;
62861;SDS011;48953;53.110;5.592;2022-12-10T09:37:24;54.88;;;15.05;;
62861;SDS011;48953;53.110;5.592;2022-12-10T09:39:50;57.05;;;16.23;;
62861;SDS011;48953;53.110;5.592;2022-12-10T09:42:22;57.63;;;16.33;;
62861;SDS011;48953;53.110;5.592;2022-12-10T09:48:06;52.85;;;15.10;;
62861;SDS011;48953;53.110;5.592;2022-12-10T09:52:39;46.60;;;14.00;;
62861;SDS011;48953;53.110;5.592;2022-12-10T09:55:17;49.05;;;14.75;;
62861;SDS011;48953;53.110;5.592;2022-12-10T09:57:51;43.53;;;15.07;;
62861;SDS011;48953;53.110;5.592;2022-12-10T10:02:44;50.90;;;14.10;;
62861;SDS011;48953;53.110;5.592;2022-12-10T10:05:14;40.88;;;13.60;;
62861;SDS011;48953;53.110;5.592;2022-12-10T10:07:43;49.85;;;14.95;;
62861;SDS011;48953;53.110;5.592;2022-12-10T10:10:21;58.60;;;13.80;;
62861;SDS011;48953;53.110;5.592;2022-12-10T10:12:48;36.65;;;14.18;;
62861;SDS011;48953;53.110;5.592;2022-12-10T10:15:16;39.75;;;13.20;;
62861;SDS011;48953;53.110;5.592;2022-12-10T10:17:44;41.78;;;14.15;;
62861;SDS011;48953;53.110;5.592;2022-12-10T10:20:12;43.10;;;14.00;;
62861;SDS011;48953;53.110;5.592;2022-12-10T10:22:38;54.30;;;13.68;;
62861;SDS011;48953;53.110;5.592;2022-12-10T10:25:05;44.35;;;12.82;;
62861;SDS011;48953;53.110;5.592;2022-12-10T10:27:31;41.03;;;14.30;;
62861;SDS011;48953;53.110;5.592;2022-12-10T10:29:59;44.97;;;13.27;;
62861;SDS011;48953;53.110;5.592;2022-12-10T10:35:02;47.08;;;13.93;;
62861;SDS011;48953;53.110;5.592;2022-12-10T10:39:57;46.38;;;13.30;;
62861;SDS011;48953;53.110;5.592;2022-12-10T10:42:36;43.05;;;14.50;;
62861;SDS011;48953;53.110;5.592;2022-12-10T10:45:04;39.42;;;13.50;;
62861;SDS011;48953;53.110;5.592;2022-12-10T10:47:32;39.90;;;13.93;;
62861;SDS011;48953;53.110;5.592;2022-12-10T10:49:59;36.65;;;14.13;;
62861;SDS011;48953;53.110;5.592;2022-12-10T10:52:28;40.83;;;15.00;;
62861;SDS011;48953;53.110;5.592;2022-12-10T10:54:55;43.63;;;15.57;;
62861;SDS011;48953;53.110;5.592;2022-12-10T10:59:48;38.10;;;14.05;;
62861;SDS011;48953;53.110;5.592;2022-12-10T11:02:30;47.60;;;17.30;;
62861;SDS011;48953;53.110;5.592;2022-12-10T11:05:03;37.20;;;13.80;;
62861;SDS011;48953;53.110;5.592;2022-12-10T11:09:58;41.15;;;14.55;;
62861;SDS011;48953;53.110;5.592;2022-12-10T11:14:59;40.38;;;14.27;;
62861;SDS011;48953;53.110;5.592;2022-12-10T11:17:26;39.17;;;14.65;;
62861;SDS011;48953;53.110;5.592;2022-12-10T11:22:37;44.08;;;14.70;;
62861;SDS011;48953;53.110;5.592;2022-12-10T11:25:13;41.90;;;15.32;;
62861;SDS011;48953;53.110;5.592;2022-12-10T11:30:18;36.40;;;14.20;;
62861;SDS011;48953;53.110;5.592;2022-12-10T11:35:19;36.22;;;14.27;;
62861;SDS011;48953;53.110;5.592;2022-12-10T11:40:28;37.90;;;14.07;;
62861;SDS011;48953;53.110;5.592;2022-12-10T11:51:05;34.35;;;13.23;;
62861;SDS011;48953;53.110;5.592;2022-12-10T11:53:38;39.42;;;15.55;;
62861;SDS011;48953;53.110;5.592;2022-12-10T11:59:00;33.05;;;14.52;;
62861;SDS011;48953;53.110;5.592;2022-12-10T12:01:37;34.13;;;13.88;;
62861;SDS011;48953;53.110;5.592;2022-12-10T12:06:40;37.75;;;14.32;;
62861;SDS011;48953;53.110;5.592;2022-12-10T12:14:07;35.30;;;13.82;;
62861;SDS011;48953;53.110;5.592;2022-12-10T12:16:35;35.78;;;14.32;;
62861;SDS011;48953;53.110;5.592;2022-12-10T12:19:05;36.28;;;13.88;;
62861;SDS011;48953;53.110;5.592;2022-12-10T12:21:35;39.58;;;15.48;;
62861;SDS011;48953;53.110;5.592;2022-12-10T12:24:03;34.67;;;14.68;;
62861;SDS011;48953;53.110;5.592;2022-12-10T12:31:40;34.47;;;14.15;;
62861;SDS011;48953;53.110;5.592;2022-12-10T12:34:17;34.38;;;13.98;;
62861;SDS011;48953;53.110;5.592;2022-12-10T12:36:43;34.53;;;15.15;;
62861;SDS011;48953;53.110;5.592;2022-12-10T12:41:40;36.45;;;15.20;;
62861;SDS011;48953;53.110;5.592;2022-12-10T12:46:35;32.53;;;14.15;;
62861;SDS011;48953;53.110;5.592;2022-12-10T12:49:10;37.60;;;15.18;;
62861;SDS011;48953;53.110;5.592;2022-12-10T12:51:44;35.47;;;14.00;;
62861;SDS011;48953;53.110;5.592;2022-12-10T12:54:11;33.85;;;13.50;;
62861;SDS011;48953;53.110;5.592;2022-12-10T12:59:34;35.72;;;14.15;;
62861;SDS011;48953;53.110;5.592;2022-12-10T13:02:17;37.72;;;15.45;;
62861;SDS011;48953;53.110;5.592;2022-12-10T13:04:45;33.45;;;14.43;;
62861;SDS011;48953;53.110;5.592;2022-12-10T13:09:50;37.63;;;15.10;;
62861;SDS011;48953;53.110;5.592;2022-12-10T13:12:27;33.40;;;14.88;;
62861;SDS011;48953;53.110;5.592;2022-12-10T13:19:52;32.03;;;14.07;;
62861;SDS011;48953;53.110;5.592;2022-12-10T13:25:05;33.10;;;14.15;;
62861;SDS011;48953;53.110;5.592;2022-12-10T13:27:32;36.50;;;14.55;;
62861;SDS011;48953;53.110;5.592;2022-12-10T13:30:00;29.40;;;12.85;;
62861;SDS011;48953;53.110;5.592;2022-12-10T13:37:34;31.90;;;13.32;;
62861;SDS011;48953;53.110;5.592;2022-12-10T13:42:35;32.33;;;14.05;;
62861;SDS011;48953;53.110;5.592;2022-12-10T13:47:47;30.35;;;12.57;;
62861;SDS011;48953;53.110;5.592;2022-12-10T13:50:17;32.88;;;12.80;;
62861;SDS011;48953;53.110;5.592;2022-12-10T13:55:26;31.92;;;13.38;;
62861;SDS011;48953;53.110;5.592;2022-12-10T14:00:40;26.83;;;12.18;;
62861;SDS011;48953;53.110;5.592;2022-12-10T14:06:10;39.08;;;14.20;;
62861;SDS011;48953;53.110;5.592;2022-12-10T14:08:38;200.38;;;23.58;;
62861;SDS011;48953;53.110;5.592;2022-12-10T14:11:06;34.92;;;14.88;;
62861;SDS011;48953;53.110;5.592;2022-12-10T14:13:39;33.42;;;13.05;;
62861;SDS011;48953;53.110;5.592;2022-12-10T14:16:10;29.98;;;13.23;;
62861;SDS011;48953;53.110;5.592;2022-12-10T14:18:36;33.40;;;13.27;;
62861;SDS011;48953;53.110;5.592;2022-12-10T14:21:03;28.42;;;12.23;;
62861;SDS011;48953;53.110;5.592;2022-12-10T14:23:32;32.65;;;12.75;;
62861;SDS011;48953;53.110;5.592;2022-12-10T14:25:58;30.38;;;11.88;;
62861;SDS011;48953;53.110;5.592;2022-12-10T14:28:29;36.30;;;12.38;;
62861;SDS011;48953;53.110;5.592;2022-12-10T14:30:58;29.00;;;11.30;;
62861;SDS011;48953;53.110;5.592;2022-12-10T14:33:24;29.92;;;11.93;;
62861;SDS011;48953;53.110;5.592;2022-12-10T14:35:51;31.35;;;13.43;;
62861;SDS011;48953;53.110;5.592;2022-12-10T14:38:36;32.80;;;13.55;;
62861;SDS011;48953;53.110;5.592;2022-12-10T14:41:02;31.83;;;12.07;;
62861;SDS011;48953;53.110;5.592;2022-12-10T14:43:38;27.95;;;11.82;;
62861;SDS011;48953;53.110;5.592;2022-12-10T14:46:05;27.92;;;11.50;;
62861;SDS011;48953;53.110;5.592;2022-12-10T14:48:39;26.52;;;11.35;;
62861;SDS011;48953;53.110;5.592;2022-12-10T14:51:14;24.48;;;9.88;;
62861;SDS011;48953;53.110;5.592;2022-12-10T14:53:41;38.45;;;10.75;;
62861;SDS011;48953;53.110;5.592;2022-12-10T14:56:08;24.77;;;10.30;;
62861;SDS011;48953;53.110;5.592;2022-12-10T14:58:39;28.77;;;11.40;;
62861;SDS011;48953;53.110;5.592;2022-12-10T15:01:09;28.85;;;12.88;;
62861;SDS011;48953;53.110;5.592;2022-12-10T15:03:39;26.23;;;10.45;;
62861;SDS011;48953;53.110;5.592;2022-12-10T15:06:12;26.52;;;10.85;;
62861;SDS011;48953;53.110;5.592;2022-12-10T15:08:41;24.17;;;9.63;;
62861;SDS011;48953;53.110;5.592;2022-12-10T15:11:10;22.63;;;10.27;;
62861;SDS011;48953;53.110;5.592;2022-12-10T15:13:40;23.85;;;9.88;;
62861;SDS011;48953;53.110;5.592;2022-12-10T15:19:25;26.23;;;9.88;;
62861;SDS011;48953;53.110;5.592;2022-12-10T15:21:51;27.42;;;10.57;;
62861;SDS011;48953;53.110;5.592;2022-12-10T15:24:24;26.95;;;11.00;;
62861;SDS011;48953;53.110;5.592;2022-12-10T15:26:51;23.40;;;9.50;;
62861;SDS011;48953;53.110;5.592;2022-12-10T15:31:54;26.92;;;11.85;;
62861;SDS011;48953;53.110;5.592;2022-12-10T15:34:20;27.90;;;10.50;;
62861;SDS011;48953;53.110;5.592;2022-12-10T15:36:50;22.50;;;9.48;;
62861;SDS011;48953;53.110;5.592;2022-12-10T15:44:19;30.08;;;11.65;;
62861;SDS011;48953;53.110;5.592;2022-12-10T15:46:49;32.15;;;12.20;;
62861;SDS011;48953;53.110;5.592;2022-12-10T15:49:15;30.13;;;12.95;;
62861;SDS011;48953;53.110;5.592;2022-12-10T15:51:42;36.22;;;14.77;;
62861;SDS011;48953;53.110;5.592;2022-12-10T15:57:10;38.08;;;15.35;;
62861;SDS011;48953;53.110;5.592;2022-12-10T15:59:38;157.75;;;19.80;;
62861;SDS011;48953;53.110;5.592;2022-12-10T16:02:08;43.88;;;14.73;;
62861;SDS011;48953;53.110;5.592;2022-12-10T16:04:40;42.63;;;14.60;;
62861;SDS011;48953;53.110;5.592;2022-12-10T16:07:07;35.08;;;14.00;;
62861;SDS011;48953;53.110;5.592;2022-12-10T16:09:33;41.70;;;14.35;;
62861;SDS011;48953;53.110;5.592;2022-12-10T16:11:59;36.47;;;13.88;;
62861;SDS011;48953;53.110;5.592;2022-12-10T16:14:25;36.75;;;13.65;;
62861;SDS011;48953;53.110;5.592;2022-12-10T16:16:51;33.50;;;12.98;;
62861;SDS011;48953;53.110;5.592;2022-12-10T16:19:17;33.95;;;12.43;;
62861;SDS011;48953;53.110;5.592;2022-12-10T16:21:43;47.70;;;14.80;;
62861;SDS011;48953;53.110;5.592;2022-12-10T16:24:10;39.38;;;14.52;;
62861;SDS011;48953;53.110;5.592;2022-12-10T16:26:36;36.30;;;14.68;;
62861;SDS011;48953;53.110;5.592;2022-12-10T16:29:02;37.03;;;12.95;;